This is the latest recevied weather packets stored in our database for station/object OE-11061. If no packets are shown the sender has not sent any weather packets the latest 10 day(s).
| Time | Temp. | Humidity | Pressure | Rain* | Wind** | Luminosity | Snow |
|---|---|---|---|---|---|---|---|
| 1788116721 | 20.56° C | 76% | 1014.8 hPa | 0 mm | - | 0 W/m² | - |
| 1788114921 | 21.11° C | 75% | 1014.4 hPa | 0 mm | - | 0 W/m² | - |
| 1788113494 | 21.67° C | 74% | 1014.1 hPa | 0 mm | - | 7 W/m² | - |
| 1788113121 | 22.22° C | 74% | 1013.8 hPa | 0 mm | - | 15 W/m² | - |
| 1788112521 | 22.78° C | 65% | 1013.5 hPa | 0 mm | - | 37 W/m² | - |
| 1788111933 | 22.78° C | 72% | 1013.5 hPa | 0 mm | - | 52 W/m² | - |
| 1788111322 | 23.33° C | 74% | 1013.5 hPa | 0 mm | - | 60 W/m² | - |
| 1788109894 | 24.44° C | 61% | 1013.3 hPa | 0 mm | - | 82 W/m² | - |
| 1788108921 | 25.56° C | 56% | 1013.1 hPa | 0 mm | - | 112 W/m² | - |
| 1788108094 | 25.56° C | 53% | 1013 hPa | 0 mm | - | 194 W/m² | - |
| 1788107721 | 25.56° C | 52% | 1013 hPa | 0 mm | - | 149 W/m² | - |
| 1788106295 | 26.67° C | 46% | 1013 hPa | 0 mm | - | 276 W/m² | - |
| 1788104121 | 26.67° C | 49% | 1013.1 hPa | 0 mm | - | 344 W/m² | - |
| 1788103521 | 26.67° C | 44% | 1013.3 hPa | 0 mm | - | 388 W/m² | - |
| 1788102694 | 26.67° C | 43% | 1013.3 hPa | 0 mm | - | 441 W/m² | - |
| 1788102321 | 27.22° C | 43% | 1013.2 hPa | 0 mm | - | 463 W/m² | - |
| 1788100520 | 27.22° C | 43% | 1013.3 hPa | 0 mm | - | 545 W/m² | - |
| 1788099921 | 27.22° C | 43% | 1013.3 hPa | 0 mm | - | 530 W/m² | - |
| 1788099094 | 27.22° C | 44% | 1013.3 hPa | 0 mm | - | 605 W/m² | - |
| 1788098121 | 27.22° C | 43% | 1013.5 hPa | 0 mm | - | 642 W/m² | - |
| 1788096921 | 27.22° C | 46% | 1013.7 hPa | 0 mm | - | 680 W/m² | - |
| 1788096320 | 26.67° C | 43% | 1013.9 hPa | 0 mm | - | 680 W/m² | - |
| 1788095494 | 26.67° C | 42% | 1014 hPa | 0 mm | - | 717 W/m² | - |
| 1788093321 | 27.22° C | 43% | 1014.2 hPa | 0 mm | - | 747 W/m² | - |
| 1788092721 | 26.67° C | 47% | 1014.4 hPa | 0 mm | - | 747 W/m² | - |
* Rain latest hour (hover to see other rain measurements)
** Current wind speed in m/s (hover to see current wind gust speed)